sensor_id;sensor_type;location;lat;lon;timestamp;pressure;altitude;pressure_sealevel;temperature;humidity
69035;BME280;56091;55.756;37.412;2023-04-07T00:01:24;99866.25;;;4.20;46.84
69035;BME280;56091;55.756;37.412;2023-04-07T00:06:25;99868.72;;;4.21;47.05
69035;BME280;56091;55.756;37.412;2023-04-07T00:11:26;99865.81;;;4.16;46.86
69035;BME280;56091;55.756;37.412;2023-04-07T00:16:27;99855.50;;;4.13;46.88
69035;BME280;56091;55.756;37.412;2023-04-07T00:21:28;99861.03;;;4.11;47.04
69035;BME280;56091;55.756;37.412;2023-04-07T00:26:29;99858.97;;;4.07;47.07
69035;BME280;56091;55.756;37.412;2023-04-07T00:31:32;99850.53;;;3.97;47.13
69035;BME280;56091;55.756;37.412;2023-04-07T00:36:33;99860.34;;;3.96;47.33
69035;BME280;56091;55.756;37.412;2023-04-07T00:41:34;99854.59;;;3.92;47.28
69035;BME280;56091;55.756;37.412;2023-04-07T00:46:35;99860.97;;;3.91;47.43
69035;BME280;56091;55.756;37.412;2023-04-07T00:51:36;99855.94;;;3.75;48.04
69035;BME280;56091;55.756;37.412;2023-04-07T00:56:37;99864.53;;;3.70;48.07
69035;BME280;56091;55.756;37.412;2023-04-07T01:01:50;99853.19;;;3.62;48.20
69035;BME280;56091;55.756;37.412;2023-04-07T01:07:00;99852.38;;;3.61;48.34
69035;BME280;56091;55.756;37.412;2023-04-07T01:17:44;99869.09;;;3.48;48.71
69035;BME280;56091;55.756;37.412;2023-04-07T01:22:56;99869.88;;;3.42;48.86
69035;BME280;56091;55.756;37.412;2023-04-07T01:33:05;99855.38;;;3.23;49.25
69035;BME280;56091;55.756;37.412;2023-04-07T01:38:07;99859.25;;;3.21;49.32
69035;BME280;56091;55.756;37.412;2023-04-07T01:43:10;99863.94;;;3.19;49.47
69035;BME280;56091;55.756;37.412;2023-04-07T01:48:12;99858.19;;;3.15;49.50
69035;BME280;56091;55.756;37.412;2023-04-07T01:53:14;99864.78;;;3.19;49.54
69035;BME280;56091;55.756;37.412;2023-04-07T01:58:15;99865.78;;;3.18;49.73
69035;BME280;56091;55.756;37.412;2023-04-07T02:03:28;99867.97;;;3.08;50.02
69035;BME280;56091;55.756;37.412;2023-04-07T02:08:34;99867.50;;;3.04;49.96
69035;BME280;56091;55.756;37.412;2023-04-07T02:13:36;99866.81;;;2.96;50.20
69035;BME280;56091;55.756;37.412;2023-04-07T02:18:37;99860.97;;;2.85;50.28
69035;BME280;56091;55.756;37.412;2023-04-07T02:23:39;99871.50;;;2.93;50.56
69035;BME280;56091;55.756;37.412;2023-04-07T02:28:40;99875.31;;;2.84;50.79
69035;BME280;56091;55.756;37.412;2023-04-07T02:33:41;99881.41;;;2.78;50.94
69035;BME280;56091;55.756;37.412;2023-04-07T02:38:42;99866.81;;;2.74;51.18
69035;BME280;56091;55.756;37.412;2023-04-07T02:43:42;99859.50;;;2.61;51.15
69035;BME280;56091;55.756;37.412;2023-04-07T02:48:43;99879.88;;;2.69;51.19
69035;BME280;56091;55.756;37.412;2023-04-07T02:53:45;99870.72;;;2.57;51.34
69035;BME280;56091;55.756;37.412;2023-04-07T02:58:46;99880.63;;;2.63;51.30
69035;BME280;56091;55.756;37.412;2023-04-07T03:03:47;99879.19;;;2.60;51.84
69035;BME280;56091;55.756;37.412;2023-04-07T03:08:57;99887.63;;;2.64;51.72
69035;BME280;56091;55.756;37.412;2023-04-07T03:14:00;99894.84;;;2.70;51.55
69035;BME280;56091;55.756;37.412;2023-04-07T03:19:03;99894.84;;;2.70;51.53
69035;BME280;56091;55.756;37.412;2023-04-07T03:24:08;99885.50;;;2.59;51.45
69035;BME280;56091;55.756;37.412;2023-04-07T03:29:10;99898.06;;;2.65;51.59
69035;BME280;56091;55.756;37.412;2023-04-07T03:34:14;99895.66;;;2.70;51.58
69035;BME280;56091;55.756;37.412;2023-04-07T03:39:15;99908.69;;;2.80;51.32
69035;BME280;56091;55.756;37.412;2023-04-07T03:44:16;99901.50;;;2.81;51.17
69035;BME280;56091;55.756;37.412;2023-04-07T03:49:17;99916.63;;;2.95;51.12
69035;BME280;56091;55.756;37.412;2023-04-07T03:54:17;99894.03;;;2.91;50.88
69035;BME280;56091;55.756;37.412;2023-04-07T03:59:19;99917.97;;;3.06;50.74
69035;BME280;56091;55.756;37.412;2023-04-07T04:04:35;99918.91;;;3.20;50.67
69035;BME280;56091;55.756;37.412;2023-04-07T04:09:36;99920.69;;;3.34;50.36
69035;BME280;56091;55.756;37.412;2023-04-07T04:14:38;99922.09;;;3.58;50.00
69035;BME280;56091;55.756;37.412;2023-04-07T04:19:40;99918.38;;;3.52;49.45
69035;BME280;56091;55.756;37.412;2023-04-07T04:24:56;99923.81;;;3.66;49.46
69035;BME280;56091;55.756;37.412;2023-04-07T04:29:59;99918.53;;;3.72;48.85
69035;BME280;56091;55.756;37.412;2023-04-07T04:35:09;99931.00;;;3.94;48.57
69035;BME280;56091;55.756;37.412;2023-04-07T04:40:19;99920.34;;;4.00;48.26
69035;BME280;56091;55.756;37.412;2023-04-07T04:45:22;99906.72;;;3.88;47.70
69035;BME280;56091;55.756;37.412;2023-04-07T04:50:24;99941.16;;;4.11;47.83
69035;BME280;56091;55.756;37.412;2023-04-07T04:55:26;99934.41;;;4.16;47.55
69035;BME280;56091;55.756;37.412;2023-04-07T05:00:28;99937.16;;;4.29;47.85
69035;BME280;56091;55.756;37.412;2023-04-07T05:05:34;99936.72;;;4.74;46.47
69035;BME280;56091;55.756;37.412;2023-04-07T05:10:39;99942.53;;;4.91;45.94
69035;BME280;56091;55.756;37.412;2023-04-07T05:15:44;99930.94;;;4.70;46.14
69035;BME280;56091;55.756;37.412;2023-04-07T05:20:48;99948.06;;;4.89;45.78
69035;BME280;56091;55.756;37.412;2023-04-07T05:25:49;99958.78;;;4.96;45.65
69035;BME280;56091;55.756;37.412;2023-04-07T05:30:50;99954.09;;;5.11;45.50
69035;BME280;56091;55.756;37.412;2023-04-07T05:35:52;99962.78;;;5.53;45.00
69035;BME280;56091;55.756;37.412;2023-04-07T05:40:53;99952.50;;;5.57;44.28
69035;BME280;56091;55.756;37.412;2023-04-07T05:45:59;99951.25;;;5.86;43.45
69035;BME280;56091;55.756;37.412;2023-04-07T05:51:01;99965.25;;;6.21;42.90
69035;BME280;56091;55.756;37.412;2023-04-07T05:56:02;99964.41;;;6.34;42.31
69035;BME280;56091;55.756;37.412;2023-04-07T06:01:20;99959.09;;;6.73;42.30
69035;BME280;56091;55.756;37.412;2023-04-07T06:06:22;99958.94;;;6.61;41.75
69035;BME280;56091;55.756;37.412;2023-04-07T06:11:25;99966.56;;;6.64;41.90
69035;BME280;56091;55.756;37.412;2023-04-07T06:16:27;99956.25;;;6.61;41.63
69035;BME280;56091;55.756;37.412;2023-04-07T06:21:28;99960.78;;;6.67;41.54
69035;BME280;56091;55.756;37.412;2023-04-07T06:26:29;99957.22;;;6.73;41.41
69035;BME280;56091;55.756;37.412;2023-04-07T06:31:31;99969.97;;;6.84;41.62
69035;BME280;56091;55.756;37.412;2023-04-07T06:36:32;99964.22;;;6.81;41.10
69035;BME280;56091;55.756;37.412;2023-04-07T06:41:33;99967.06;;;6.93;40.86
69035;BME280;56091;55.756;37.412;2023-04-07T06:46:34;99975.47;;;7.03;41.03
69035;BME280;56091;55.756;37.412;2023-04-07T06:51:34;99985.31;;;7.16;40.80
69035;BME280;56091;55.756;37.412;2023-04-07T06:56:35;99979.44;;;7.32;40.59
69035;BME280;56091;55.756;37.412;2023-04-07T07:01:36;99980.69;;;7.55;39.80
69035;BME280;56091;55.756;37.412;2023-04-07T07:06:37;99982.03;;;7.71;39.50
69035;BME280;56091;55.756;37.412;2023-04-07T07:11:37;99987.44;;;7.64;39.35
69035;BME280;56091;55.756;37.412;2023-04-07T07:16:41;99978.75;;;7.94;39.32
69035;BME280;56091;55.756;37.412;2023-04-07T07:21:41;99979.38;;;8.14;38.94
69035;BME280;56091;55.756;37.412;2023-04-07T07:26:42;99986.13;;;8.24;38.55
69035;BME280;56091;55.756;37.412;2023-04-07T07:31:44;99981.16;;;8.46;37.62
69035;BME280;56091;55.756;37.412;2023-04-07T07:36:45;99986.53;;;8.64;37.43
69035;BME280;56091;55.756;37.412;2023-04-07T07:41:48;99991.16;;;8.75;37.46
69035;BME280;56091;55.756;37.412;2023-04-07T07:46:50;99981.53;;;8.86;36.78
69035;BME280;56091;55.756;37.412;2023-04-07T07:51:50;99985.88;;;8.99;36.44
69035;BME280;56091;55.756;37.412;2023-04-07T07:56:51;99984.44;;;9.15;36.40
69035;BME280;56091;55.756;37.412;2023-04-07T08:01:52;99989.44;;;9.30;35.99
69035;BME280;56091;55.756;37.412;2023-04-07T08:06:53;99973.56;;;9.22;35.49
69035;BME280;56091;55.756;37.412;2023-04-07T08:11:54;99972.88;;;9.14;35.45
69035;BME280;56091;55.756;37.412;2023-04-07T08:16:55;99971.84;;;9.27;35.66
69035;BME280;56091;55.756;37.412;2023-04-07T08:21:56;99973.78;;;9.50;34.72
69035;BME280;56091;55.756;37.412;2023-04-07T08:26:56;99955.88;;;9.56;33.68
69035;BME280;56091;55.756;37.412;2023-04-07T08:31:57;99959.41;;;9.68;33.82
69035;BME280;56091;55.756;37.412;2023-04-07T08:36:58;99965.53;;;9.87;33.44
69035;BME280;56091;55.756;37.412;2023-04-07T08:41:59;99956.38;;;9.88;33.09
69035;BME280;56091;55.756;37.412;2023-04-07T08:47:01;99959.41;;;9.92;33.15
69035;BME280;56091;55.756;37.412;2023-04-07T08:52:05;99957.22;;;9.89;32.51
69035;BME280;56091;55.756;37.412;2023-04-07T08:57:09;99962.97;;;9.92;32.40
69035;BME280;56091;55.756;37.412;2023-04-07T09:02:11;99974.09;;;10.08;32.36
69035;BME280;56091;55.756;37.412;2023-04-07T09:07:11;99974.78;;;10.03;32.16
69035;BME280;56091;55.756;37.412;2023-04-07T09:12:12;99968.47;;;10.09;31.83
69035;BME280;56091;55.756;37.412;2023-04-07T09:17:13;99958.13;;;10.30;31.62
69035;BME280;56091;55.756;37.412;2023-04-07T09:22:14;99954.50;;;10.48;31.71
69035;BME280;56091;55.756;37.412;2023-04-07T09:27:17;99951.53;;;10.61;30.91
69035;BME280;56091;55.756;37.412;2023-04-07T09:32:35;99936.81;;;10.81;30.59
69035;BME280;56091;55.756;37.412;2023-04-07T09:37:38;99951.16;;;10.98;30.51
69035;BME280;56091;55.756;37.412;2023-04-07T09:42:46;99929.03;;;11.13;30.36
69035;BME280;56091;55.756;37.412;2023-04-07T09:47:47;99952.00;;;11.44;29.95
69035;BME280;56091;55.756;37.412;2023-04-07T09:52:51;99951.50;;;11.64;29.71
69035;BME280;56091;55.756;37.412;2023-04-07T09:57:52;99943.00;;;11.56;29.29
69035;BME280;56091;55.756;37.412;2023-04-07T10:02:55;99944.50;;;11.63;29.10
69035;BME280;56091;55.756;37.412;2023-04-07T10:07:57;99942.75;;;11.74;28.70
69035;BME280;56091;55.756;37.412;2023-04-07T10:12:58;99947.25;;;11.85;28.49
69035;BME280;56091;55.756;37.412;2023-04-07T10:17:59;99943.03;;;11.72;27.99
69035;BME280;56091;55.756;37.412;2023-04-07T10:23:05;99952.59;;;11.80;28.60
69035;BME280;56091;55.756;37.412;2023-04-07T10:28:09;99939.31;;;11.45;28.14
69035;BME280;56091;55.756;37.412;2023-04-07T10:33:12;99948.75;;;11.76;28.14
69035;BME280;56091;55.756;37.412;2023-04-07T10:38:13;99951.44;;;11.93;28.04
69035;BME280;56091;55.756;37.412;2023-04-07T10:43:36;99944.88;;;12.06;27.26
69035;BME280;56091;55.756;37.412;2023-04-07T10:48:38;99943.84;;;12.29;27.26
69035;BME280;56091;55.756;37.412;2023-04-07T10:54:13;99952.59;;;12.36;27.27
69035;BME280;56091;55.756;37.412;2023-04-07T10:59:15;99954.34;;;12.25;27.29
69035;BME280;56091;55.756;37.412;2023-04-07T11:04:17;99946.22;;;12.25;27.67
69035;BME280;56091;55.756;37.412;2023-04-07T11:09:18;99945.63;;;12.18;27.27
69035;BME280;56091;55.756;37.412;2023-04-07T11:14:31;99946.09;;;12.15;26.75
69035;BME280;56091;55.756;37.412;2023-04-07T11:19:49;99946.06;;;12.32;27.05
69035;BME280;56091;55.756;37.412;2023-04-07T11:24:51;99944.63;;;12.24;27.13
69035;BME280;56091;55.756;37.412;2023-04-07T11:29:52;99946.59;;;12.12;27.22
69035;BME280;56091;55.756;37.412;2023-04-07T11:34:53;99945.75;;;12.28;27.08
69035;BME280;56091;55.756;37.412;2023-04-07T11:39:55;99944.75;;;12.35;26.27
69035;BME280;56091;55.756;37.412;2023-04-07T11:44:57;99943.13;;;12.34;26.48
69035;BME280;56091;55.756;37.412;2023-04-07T11:49:58;99944.75;;;12.35;26.60
69035;BME280;56091;55.756;37.412;2023-04-07T11:54:58;99940.94;;;12.53;26.14
69035;BME280;56091;55.756;37.412;2023-04-07T12:00:08;99939.22;;;12.91;25.87
69035;BME280;56091;55.756;37.412;2023-04-07T12:05:09;99920.66;;;12.77;25.66
69035;BME280;56091;55.756;37.412;2023-04-07T12:10:21;99932.78;;;12.75;26.26
69035;BME280;56091;55.756;37.412;2023-04-07T12:15:23;99934.19;;;12.77;25.83
69035;BME280;56091;55.756;37.412;2023-04-07T12:20:23;99934.94;;;12.73;25.95
69035;BME280;56091;55.756;37.412;2023-04-07T12:25:25;99935.88;;;12.61;26.53
69035;BME280;56091;55.756;37.412;2023-04-07T12:30:27;99911.97;;;12.53;26.27
69035;BME280;56091;55.756;37.412;2023-04-07T12:35:28;99932.81;;;12.53;25.92
69035;BME280;56091;55.756;37.412;2023-04-07T12:40:28;99938.34;;;12.63;26.08
69035;BME280;56091;55.756;37.412;2023-04-07T12:45:31;99935.94;;;12.66;26.15
69035;BME280;56091;55.756;37.412;2023-04-07T12:50:34;99923.09;;;12.79;26.21
69035;BME280;56091;55.756;37.412;2023-04-07T12:55:35;99921.78;;;12.81;26.08
69035;BME280;56091;55.756;37.412;2023-04-07T13:00:36;99930.16;;;12.80;26.58
69035;BME280;56091;55.756;37.412;2023-04-07T13:05:37;99920.34;;;12.74;26.29
69035;BME280;56091;55.756;37.412;2023-04-07T13:10:38;99919.72;;;12.66;26.20
69035;BME280;56091;55.756;37.412;2023-04-07T13:15:39;99918.03;;;12.87;26.28
69035;BME280;56091;55.756;37.412;2023-04-07T13:20:39;99926.69;;;12.62;26.40
69035;BME280;56091;55.756;37.412;2023-04-07T13:25:40;99932.69;;;12.64;26.46
69035;BME280;56091;55.756;37.412;2023-04-07T13:30:41;99922.28;;;12.34;26.46
69035;BME280;56091;55.756;37.412;2023-04-07T13:35:42;99921.16;;;12.30;26.76
69035;BME280;56091;55.756;37.412;2023-04-07T13:40:43;99918.31;;;12.42;27.02
69035;BME280;56091;55.756;37.412;2023-04-07T13:45:44;99926.28;;;12.09;27.12
69035;BME280;56091;55.756;37.412;2023-04-07T13:50:46;99919.56;;;12.12;27.10
69035;BME280;56091;55.756;37.412;2023-04-07T13:55:47;99922.50;;;12.27;26.54
69035;BME280;56091;55.756;37.412;2023-04-07T14:00:47;99934.19;;;12.33;26.57
69035;BME280;56091;55.756;37.412;2023-04-07T14:05:48;99925.00;;;12.56;26.66
69035;BME280;56091;55.756;37.412;2023-04-07T14:10:49;99917.41;;;12.80;26.16
69035;BME280;56091;55.756;37.412;2023-04-07T14:15:50;99923.91;;;14.56;23.87
69035;BME280;56091;55.756;37.412;2023-04-07T14:20:52;99926.69;;;18.39;19.30
69035;BME280;56091;55.756;37.412;2023-04-07T14:25:54;99921.22;;;20.04;17.24
69035;BME280;56091;55.756;37.412;2023-04-07T14:30:55;99920.06;;;21.61;16.55
69035;BME280;56091;55.756;37.412;2023-04-07T14:35:56;99929.69;;;22.44;15.05
69035;BME280;56091;55.756;37.412;2023-04-07T14:40:57;99926.25;;;22.87;14.39
69035;BME280;56091;55.756;37.412;2023-04-07T14:45:58;99925.25;;;22.66;14.88
69035;BME280;56091;55.756;37.412;2023-04-07T14:50:59;99926.78;;;22.09;15.06
69035;BME280;56091;55.756;37.412;2023-04-07T14:56:03;99925.50;;;20.11;17.12
69035;BME280;56091;55.756;37.412;2023-04-07T15:01:05;99922.34;;;20.03;17.17
69035;BME280;56091;55.756;37.412;2023-04-07T15:06:11;99923.16;;;20.32;17.49
69035;BME280;56091;55.756;37.412;2023-04-07T15:11:18;99915.78;;;20.60;16.67
69035;BME280;56091;55.756;37.412;2023-04-07T15:16:19;99917.41;;;20.47;17.12
69035;BME280;56091;55.756;37.412;2023-04-07T15:21:20;99915.16;;;20.07;17.20
69035;BME280;56091;55.756;37.412;2023-04-07T15:26:20;99868.59;;;19.47;17.72
69035;BME280;56091;55.756;37.412;2023-04-07T15:31:21;99932.91;;;19.25;18.35
69035;BME280;56091;55.756;37.412;2023-04-07T15:36:24;99931.81;;;19.07;18.63
69035;BME280;56091;55.756;37.412;2023-04-07T15:41:25;99930.69;;;18.46;19.52
69035;BME280;56091;55.756;37.412;2023-04-07T15:46:26;99941.22;;;16.21;21.71
69035;BME280;56091;55.756;37.412;2023-04-07T15:51:28;99948.31;;;13.98;24.61
69035;BME280;56091;55.756;37.412;2023-04-07T15:56:29;99946.88;;;12.99;26.26
69035;BME280;56091;55.756;37.412;2023-04-07T16:01:30;99952.81;;;12.29;27.59
69035;BME280;56091;55.756;37.412;2023-04-07T16:06:30;99956.13;;;11.81;28.91
69035;BME280;56091;55.756;37.412;2023-04-07T16:11:34;99959.50;;;11.25;29.24
69035;BME280;56091;55.756;37.412;2023-04-07T16:16:41;99959.06;;;10.59;30.47
69035;BME280;56091;55.756;37.412;2023-04-07T16:21:43;99974.69;;;10.45;31.03
69035;BME280;56091;55.756;37.412;2023-04-07T16:26:44;99988.38;;;10.20;31.22
69035;BME280;56091;55.756;37.412;2023-04-07T16:31:52;99983.34;;;10.00;32.08
69035;BME280;56091;55.756;37.412;2023-04-07T16:36:53;99978.50;;;9.78;32.37
69035;BME280;56091;55.756;37.412;2023-04-07T16:41:54;99991.66;;;9.87;32.79
69035;BME280;56091;55.756;37.412;2023-04-07T16:46:55;99997.34;;;9.67;32.76
69035;BME280;56091;55.756;37.412;2023-04-07T16:52:04;100004.00;;;9.52;33.17
69035;BME280;56091;55.756;37.412;2023-04-07T16:57:05;99999.72;;;9.33;33.64
69035;BME280;56091;55.756;37.412;2023-04-07T17:02:11;100008.09;;;9.13;34.20
69035;BME280;56091;55.756;37.412;2023-04-07T17:07:12;100007.13;;;8.89;34.42
69035;BME280;56091;55.756;37.412;2023-04-07T17:12:13;100013.97;;;8.73;34.93
69035;BME280;56091;55.756;37.412;2023-04-07T17:17:14;100008.72;;;8.59;34.99
69035;BME280;56091;55.756;37.412;2023-04-07T17:22:17;100018.34;;;8.49;34.94
69035;BME280;56091;55.756;37.412;2023-04-07T17:27:19;100025.25;;;8.38;35.30
69035;BME280;56091;55.756;37.412;2023-04-07T17:32:21;100033.59;;;8.30;35.25
69035;BME280;56091;55.756;37.412;2023-04-07T17:37:21;100021.09;;;8.17;35.61
69035;BME280;56091;55.756;37.412;2023-04-07T17:42:22;100038.28;;;8.16;35.75
69035;BME280;56091;55.756;37.412;2023-04-07T17:47:24;100038.56;;;8.08;35.72
69035;BME280;56091;55.756;37.412;2023-04-07T17:52:25;100045.25;;;7.98;35.92
69035;BME280;56091;55.756;37.412;2023-04-07T17:57:31;100053.97;;;7.94;35.83
69035;BME280;56091;55.756;37.412;2023-04-07T18:02:32;100055.69;;;7.81;36.04
69035;BME280;56091;55.756;37.412;2023-04-07T18:07:34;100046.66;;;7.76;36.16
69035;BME280;56091;55.756;37.412;2023-04-07T18:12:35;100072.06;;;7.80;36.10
69035;BME280;56091;55.756;37.412;2023-04-07T18:17:36;100064.41;;;7.77;36.11
69035;BME280;56091;55.756;37.412;2023-04-07T18:22:36;100066.59;;;7.61;36.25
69035;BME280;56091;55.756;37.412;2023-04-07T18:27:37;100071.13;;;7.61;36.39
69035;BME280;56091;55.756;37.412;2023-04-07T18:32:39;100074.06;;;7.53;36.22
69035;BME280;56091;55.756;37.412;2023-04-07T18:37:40;100086.28;;;7.49;36.47
69035;BME280;56091;55.756;37.412;2023-04-07T18:42:41;100082.78;;;7.41;36.38
69035;BME280;56091;55.756;37.412;2023-04-07T18:47:42;100080.75;;;7.37;36.77
69035;BME280;56091;55.756;37.412;2023-04-07T18:52:43;100084.72;;;7.34;36.89
69035;BME280;56091;55.756;37.412;2023-04-07T18:57:44;100078.09;;;7.30;37.01
69035;BME280;56091;55.756;37.412;2023-04-07T19:02:45;100075.22;;;7.32;36.82
69035;BME280;56091;55.756;37.412;2023-04-07T19:07:46;100063.72;;;7.11;37.08
69035;BME280;56091;55.756;37.412;2023-04-07T19:12:47;100087.94;;;7.43;37.11
69035;BME280;56091;55.756;37.412;2023-04-07T19:17:48;100082.63;;;7.36;36.47
69035;BME280;56091;55.756;37.412;2023-04-07T19:22:49;100092.97;;;7.26;36.40
69035;BME280;56091;55.756;37.412;2023-04-07T19:27:50;100087.47;;;7.14;36.49
69035;BME280;56091;55.756;37.412;2023-04-07T19:32:51;100090.41;;;7.06;36.68
69035;BME280;56091;55.756;37.412;2023-04-07T19:37:56;100090.56;;;7.11;36.79
69035;BME280;56091;55.756;37.412;2023-04-07T19:42:58;100087.72;;;7.06;37.06
69035;BME280;56091;55.756;37.412;2023-04-07T19:47:59;100087.28;;;7.09;37.06
69035;BME280;56091;55.756;37.412;2023-04-07T19:53:00;100093.09;;;6.99;36.92
69035;BME280;56091;55.756;37.412;2023-04-07T19:58:01;100093.28;;;6.98;36.37
69035;BME280;56091;55.756;37.412;2023-04-07T20:03:02;100092.28;;;6.99;36.58
69035;BME280;56091;55.756;37.412;2023-04-07T20:08:03;100101.19;;;6.86;36.94
69035;BME280;56091;55.756;37.412;2023-04-07T20:13:04;100097.06;;;6.77;37.13
69035;BME280;56091;55.756;37.412;2023-04-07T20:18:05;100101.41;;;6.78;37.29
69035;BME280;56091;55.756;37.412;2023-04-07T20:23:06;100099.13;;;6.81;37.03
69035;BME280;56091;55.756;37.412;2023-04-07T20:28:06;100096.03;;;6.71;37.33
69035;BME280;56091;55.756;37.412;2023-04-07T20:33:07;100098.56;;;6.66;37.41
69035;BME280;56091;55.756;37.412;2023-04-07T20:38:08;100090.94;;;6.50;37.84
69035;BME280;56091;55.756;37.412;2023-04-07T20:43:09;100093.81;;;6.48;38.01
69035;BME280;56091;55.756;37.412;2023-04-07T20:48:12;100105.78;;;6.45;38.01
69035;BME280;56091;55.756;37.412;2023-04-07T20:53:15;100101.66;;;6.43;38.18
69035;BME280;56091;55.756;37.412;2023-04-07T20:58:16;100101.88;;;6.41;38.28
69035;BME280;56091;55.756;37.412;2023-04-07T21:03:18;100099.41;;;6.33;38.20
69035;BME280;56091;55.756;37.412;2023-04-07T21:08:18;100101.25;;;6.33;38.41
69035;BME280;56091;55.756;37.412;2023-04-07T21:13:22;100106.81;;;6.31;38.52
69035;BME280;56091;55.756;37.412;2023-04-07T21:18:25;100097.13;;;6.23;38.48
69035;BME280;56091;55.756;37.412;2023-04-07T21:23:26;100105.38;;;6.29;38.93
69035;BME280;56091;55.756;37.412;2023-04-07T21:28:27;100111.56;;;6.29;38.16
69035;BME280;56091;55.756;37.412;2023-04-07T21:33:28;100098.59;;;6.19;38.28
69035;BME280;56091;55.756;37.412;2023-04-07T21:38:29;100106.19;;;6.29;38.67
69035;BME280;56091;55.756;37.412;2023-04-07T21:43:30;100103.72;;;6.28;38.05
69035;BME280;56091;55.756;37.412;2023-04-07T21:48:34;100101.03;;;6.14;37.59
69035;BME280;56091;55.756;37.412;2023-04-07T21:53:34;100105.19;;;6.17;37.38
69035;BME280;56091;55.756;37.412;2023-04-07T21:58:35;100111.56;;;6.09;37.11
69035;BME280;56091;55.756;37.412;2023-04-07T22:03:36;100110.94;;;6.00;36.49
69035;BME280;56091;55.756;37.412;2023-04-07T22:08:41;100104.56;;;6.01;36.49
69035;BME280;56091;55.756;37.412;2023-04-07T22:13:42;100107.44;;;6.06;36.36
69035;BME280;56091;55.756;37.412;2023-04-07T22:18:43;100104.94;;;6.05;36.53
69035;BME280;56091;55.756;37.412;2023-04-07T22:23:44;100107.25;;;6.01;36.47
69035;BME280;56091;55.756;37.412;2023-04-07T22:28:45;100085.34;;;5.71;35.70
69035;BME280;56091;55.756;37.412;2023-04-07T22:33:46;100099.13;;;5.75;35.48
69035;BME280;56091;55.756;37.412;2023-04-07T22:38:46;100099.94;;;5.68;35.46
69035;BME280;56091;55.756;37.412;2023-04-07T22:43:47;100103.44;;;5.62;35.87
69035;BME280;56091;55.756;37.412;2023-04-07T22:48:48;100100.97;;;5.67;35.89
69035;BME280;56091;55.756;37.412;2023-04-07T22:53:48;100092.31;;;5.65;36.09
69035;BME280;56091;55.756;37.412;2023-04-07T22:58:49;100091.72;;;5.63;36.22
69035;BME280;56091;55.756;37.412;2023-04-07T23:03:53;100089.38;;;5.47;36.21
69035;BME280;56091;55.756;37.412;2023-04-07T23:08:54;100089.59;;;5.39;36.65
69035;BME280;56091;55.756;37.412;2023-04-07T23:13:56;100089.59;;;5.39;36.81
69035;BME280;56091;55.756;37.412;2023-04-07T23:18:56;100099.47;;;5.45;37.06
69035;BME280;56091;55.756;37.412;2023-04-07T23:24:03;100088.13;;;5.36;37.11
69035;BME280;56091;55.756;37.412;2023-04-07T23:29:03;100087.06;;;5.31;37.33
69035;BME280;56091;55.756;37.412;2023-04-07T23:34:04;100080.47;;;5.20;37.46
69035;BME280;56091;55.756;37.412;2023-04-07T23:39:05;100086.63;;;5.20;37.96
69035;BME280;56091;55.756;37.412;2023-04-07T23:44:06;100083.34;;;5.18;38.25
69035;BME280;56091;55.756;37.412;2023-04-07T23:49:07;100073.41;;;5.12;38.23
69035;BME280;56091;55.756;37.412;2023-04-07T23:54:08;100082.66;;;5.03;38.47
69035;BME280;56091;55.756;37.412;2023-04-07T23:59:09;100097.06;;;5.08;38.97
